sensor_id;sensor_type;location;lat;lon;timestamp;P1;durP1;ratioP1;P2;durP2;ratioP2
70796;SDS011;63842;52.144;5.360;2022-10-01T00:01:16;10.65;;;4.78;;
70796;SDS011;63842;52.144;5.360;2022-10-01T00:04:41;10.85;;;4.60;;
70796;SDS011;63842;52.144;5.360;2022-10-01T00:14:58;9.63;;;4.90;;
70796;SDS011;63842;52.144;5.360;2022-10-01T00:18:22;9.63;;;4.72;;
70796;SDS011;63842;52.144;5.360;2022-10-01T00:21:34;9.07;;;4.55;;
70796;SDS011;63842;52.144;5.360;2022-10-01T00:24:33;10.10;;;4.75;;
70796;SDS011;63842;52.144;5.360;2022-10-01T00:31:09;9.52;;;4.57;;
70796;SDS011;63842;52.144;5.360;2022-10-01T00:37:27;10.45;;;4.53;;
70796;SDS011;63842;52.144;5.360;2022-10-01T00:40:55;9.95;;;4.68;;
70796;SDS011;63842;52.144;5.360;2022-10-01T00:48:19;9.05;;;4.30;;
70796;SDS011;63842;52.144;5.360;2022-10-01T00:51:54;8.30;;;4.43;;
70796;SDS011;63842;52.144;5.360;2022-10-01T00:55:47;8.43;;;4.20;;
70796;SDS011;63842;52.144;5.360;2022-10-01T00:59:00;8.80;;;4.78;;
70796;SDS011;63842;52.144;5.360;2022-10-01T01:01:53;9.50;;;4.43;;
70796;SDS011;63842;52.144;5.360;2022-10-01T01:04:45;9.05;;;4.00;;
70796;SDS011;63842;52.144;5.360;2022-10-01T01:07:35;9.45;;;4.53;;
70796;SDS011;63842;52.144;5.360;2022-10-01T01:10:43;8.20;;;4.03;;
70796;SDS011;63842;52.144;5.360;2022-10-01T01:32:20;7.22;;;3.28;;
70796;SDS011;63842;52.144;5.360;2022-10-01T01:35:42;7.55;;;3.03;;
70796;SDS011;63842;52.144;5.360;2022-10-01T01:38:46;7.90;;;3.55;;
70796;SDS011;63842;52.144;5.360;2022-10-01T01:42:02;6.95;;;3.03;;
70796;SDS011;63842;52.144;5.360;2022-10-01T01:45:19;8.82;;;3.10;;
70796;SDS011;63842;52.144;5.360;2022-10-01T01:48:24;6.28;;;2.80;;
70796;SDS011;63842;52.144;5.360;2022-10-01T01:55:42;6.25;;;2.70;;
70796;SDS011;63842;52.144;5.360;2022-10-01T01:59:19;6.78;;;2.80;;
70796;SDS011;63842;52.144;5.360;2022-10-01T02:02:36;7.85;;;2.67;;
70796;SDS011;63842;52.144;5.360;2022-10-01T02:13:16;4.88;;;2.35;;
70796;SDS011;63842;52.144;5.360;2022-10-01T02:24:46;5.43;;;2.40;;
70796;SDS011;63842;52.144;5.360;2022-10-01T02:27:17;5.15;;;2.20;;
70796;SDS011;63842;52.144;5.360;2022-10-01T02:30:19;5.55;;;2.30;;
70796;SDS011;63842;52.144;5.360;2022-10-01T02:33:10;5.50;;;2.15;;
70796;SDS011;63842;52.144;5.360;2022-10-01T02:36:35;5.00;;;1.90;;
70796;SDS011;63842;52.144;5.360;2022-10-01T02:39:49;5.40;;;2.10;;
70796;SDS011;63842;52.144;5.360;2022-10-01T02:43:51;3.70;;;1.70;;
70796;SDS011;63842;52.144;5.360;2022-10-01T02:54:27;3.20;;;1.40;;
70796;SDS011;63842;52.144;5.360;2022-10-01T02:57:38;2.95;;;1.60;;
70796;SDS011;63842;52.144;5.360;2022-10-01T03:00:56;4.32;;;1.60;;
70796;SDS011;63842;52.144;5.360;2022-10-01T03:03:51;4.93;;;1.90;;
70796;SDS011;63842;52.144;5.360;2022-10-01T03:06:39;6.28;;;1.95;;
70796;SDS011;63842;52.144;5.360;2022-10-01T03:10:13;4.82;;;1.90;;
70796;SDS011;63842;52.144;5.360;2022-10-01T03:13:50;3.85;;;1.75;;
70796;SDS011;63842;52.144;5.360;2022-10-01T03:17:00;6.03;;;2.00;;
70796;SDS011;63842;52.144;5.360;2022-10-01T03:19:49;3.95;;;1.70;;
70796;SDS011;63842;52.144;5.360;2022-10-01T03:26:46;4.03;;;1.80;;
70796;SDS011;63842;52.144;5.360;2022-10-01T03:33:22;5.07;;;2.00;;
70796;SDS011;63842;52.144;5.360;2022-10-01T03:35:54;4.03;;;1.92;;
70796;SDS011;63842;52.144;5.360;2022-10-01T03:39:21;4.50;;;2.08;;
70796;SDS011;63842;52.144;5.360;2022-10-01T03:42:40;4.90;;;2.20;;
70796;SDS011;63842;52.144;5.360;2022-10-01T03:46:24;4.82;;;2.15;;
70796;SDS011;63842;52.144;5.360;2022-10-01T03:49:06;5.65;;;2.50;;
70796;SDS011;63842;52.144;5.360;2022-10-01T03:52:13;4.90;;;2.38;;
70796;SDS011;63842;52.144;5.360;2022-10-01T03:55:14;5.32;;;2.65;;
70796;SDS011;63842;52.144;5.360;2022-10-01T03:58:39;4.72;;;2.35;;
70796;SDS011;63842;52.144;5.360;2022-10-01T04:01:49;5.65;;;2.80;;
70796;SDS011;63842;52.144;5.360;2022-10-01T04:05:09;5.47;;;2.92;;
70796;SDS011;63842;52.144;5.360;2022-10-01T04:08:00;5.97;;;2.97;;
70796;SDS011;63842;52.144;5.360;2022-10-01T04:11:05;5.78;;;2.88;;
70796;SDS011;63842;52.144;5.360;2022-10-01T04:14:01;6.32;;;3.15;;
70796;SDS011;63842;52.144;5.360;2022-10-01T04:17:43;6.80;;;3.33;;
70796;SDS011;63842;52.144;5.360;2022-10-01T04:21:38;5.95;;;3.15;;
70796;SDS011;63842;52.144;5.360;2022-10-01T04:28:03;6.55;;;3.75;;
70796;SDS011;63842;52.144;5.360;2022-10-01T04:31:51;7.10;;;3.47;;
70796;SDS011;63842;52.144;5.360;2022-10-01T04:34:48;6.82;;;3.70;;
70796;SDS011;63842;52.144;5.360;2022-10-01T04:37:45;6.93;;;3.95;;
70796;SDS011;63842;52.144;5.360;2022-10-01T04:44:50;6.90;;;4.30;;
70796;SDS011;63842;52.144;5.360;2022-10-01T04:47:52;7.32;;;4.18;;
70796;SDS011;63842;52.144;5.360;2022-10-01T04:51:40;7.15;;;4.07;;
70796;SDS011;63842;52.144;5.360;2022-10-01T04:54:57;7.75;;;4.50;;
70796;SDS011;63842;52.144;5.360;2022-10-01T05:05:34;7.55;;;4.63;;
70796;SDS011;63842;52.144;5.360;2022-10-01T05:09:06;7.50;;;4.50;;
70796;SDS011;63842;52.144;5.360;2022-10-01T05:12:40;7.20;;;4.57;;
70796;SDS011;63842;52.144;5.360;2022-10-01T05:15:58;8.45;;;4.57;;
70796;SDS011;63842;52.144;5.360;2022-10-01T05:23:24;8.27;;;4.35;;
70796;SDS011;63842;52.144;5.360;2022-10-01T05:26:57;7.50;;;4.55;;
70796;SDS011;63842;52.144;5.360;2022-10-01T05:30:01;8.02;;;4.70;;
70796;SDS011;63842;52.144;5.360;2022-10-01T05:33:45;9.18;;;4.70;;
70796;SDS011;63842;52.144;5.360;2022-10-01T05:37:34;8.18;;;4.57;;
70796;SDS011;63842;52.144;5.360;2022-10-01T05:41:02;8.35;;;4.57;;
70796;SDS011;63842;52.144;5.360;2022-10-01T05:44:49;7.78;;;4.63;;
70796;SDS011;63842;52.144;5.360;2022-10-01T05:48:24;8.25;;;4.72;;
70796;SDS011;63842;52.144;5.360;2022-10-01T05:51:43;9.20;;;4.85;;
70796;SDS011;63842;52.144;5.360;2022-10-01T05:54:53;7.82;;;4.60;;
70796;SDS011;63842;52.144;5.360;2022-10-01T05:58:40;8.57;;;5.07;;
70796;SDS011;63842;52.144;5.360;2022-10-01T06:09:07;8.82;;;4.45;;
70796;SDS011;63842;52.144;5.360;2022-10-01T06:12:49;10.50;;;4.95;;
70796;SDS011;63842;52.144;5.360;2022-10-01T06:16:18;8.00;;;4.45;;
70796;SDS011;63842;52.144;5.360;2022-10-01T06:23:46;9.32;;;4.28;;
70796;SDS011;63842;52.144;5.360;2022-10-01T06:34:40;10.05;;;4.55;;
70796;SDS011;63842;52.144;5.360;2022-10-01T06:38:15;8.43;;;4.75;;
70796;SDS011;63842;52.144;5.360;2022-10-01T06:41:52;10.70;;;4.72;;
70796;SDS011;63842;52.144;5.360;2022-10-01T06:45:05;9.07;;;4.15;;
70796;SDS011;63842;52.144;5.360;2022-10-01T06:49:06;9.02;;;4.22;;
70796;SDS011;63842;52.144;5.360;2022-10-01T06:53:16;9.70;;;4.40;;
70796;SDS011;63842;52.144;5.360;2022-10-01T07:02:05;8.60;;;4.13;;
70796;SDS011;63842;52.144;5.360;2022-10-01T07:06:28;7.82;;;3.92;;
70796;SDS011;63842;52.144;5.360;2022-10-01T07:14:42;8.80;;;4.40;;
70796;SDS011;63842;52.144;5.360;2022-10-01T07:18:36;10.18;;;4.13;;
70796;SDS011;63842;52.144;5.360;2022-10-01T07:22:00;9.77;;;4.15;;
70796;SDS011;63842;52.144;5.360;2022-10-01T07:26:10;9.32;;;4.40;;
70796;SDS011;63842;52.144;5.360;2022-10-01T07:30:04;11.35;;;4.40;;
70796;SDS011;63842;52.144;5.360;2022-10-01T07:41:38;9.90;;;3.58;;
70796;SDS011;63842;52.144;5.360;2022-10-01T07:49:06;9.30;;;3.55;;
70796;SDS011;63842;52.144;5.360;2022-10-01T07:52:20;9.48;;;4.00;;
70796;SDS011;63842;52.144;5.360;2022-10-01T07:56:13;8.52;;;4.03;;
70796;SDS011;63842;52.144;5.360;2022-10-01T08:00:15;9.80;;;3.80;;
70796;SDS011;63842;52.144;5.360;2022-10-01T08:03:07;10.60;;;3.97;;
70796;SDS011;63842;52.144;5.360;2022-10-01T08:05:52;8.77;;;3.67;;
70796;SDS011;63842;52.144;5.360;2022-10-01T08:09:18;9.02;;;3.67;;
70796;SDS011;63842;52.144;5.360;2022-10-01T08:13:04;9.23;;;3.13;;
70796;SDS011;63842;52.144;5.360;2022-10-01T08:16:41;8.75;;;3.38;;
70796;SDS011;63842;52.144;5.360;2022-10-01T08:20:36;8.95;;;3.00;;
70796;SDS011;63842;52.144;5.360;2022-10-01T08:35:20;8.85;;;2.55;;
70796;SDS011;63842;52.144;5.360;2022-10-01T08:39:20;7.57;;;2.90;;
70796;SDS011;63842;52.144;5.360;2022-10-01T08:54:57;8.75;;;2.95;;
70796;SDS011;63842;52.144;5.360;2022-10-01T09:02:27;11.77;;;4.35;;
70796;SDS011;63842;52.144;5.360;2022-10-01T09:06:21;8.50;;;2.95;;
70796;SDS011;63842;52.144;5.360;2022-10-01T09:18:37;9.75;;;2.10;;
70796;SDS011;63842;52.144;5.360;2022-10-01T09:21:56;8.57;;;2.05;;
70796;SDS011;63842;52.144;5.360;2022-10-01T09:24:44;11.43;;;2.30;;
70796;SDS011;63842;52.144;5.360;2022-10-01T09:27:35;12.60;;;2.60;;
70796;SDS011;63842;52.144;5.360;2022-10-01T09:37:22;9.32;;;2.83;;
70796;SDS011;63842;52.144;5.360;2022-10-01T09:44:38;10.25;;;2.10;;
70796;SDS011;63842;52.144;5.360;2022-10-01T09:47:18;11.13;;;2.38;;
70796;SDS011;63842;52.144;5.360;2022-10-01T09:49:47;10.50;;;2.05;;
70796;SDS011;63842;52.144;5.360;2022-10-01T09:56:22;10.05;;;2.25;;
70796;SDS011;63842;52.144;5.360;2022-10-01T10:12:16;9.93;;;2.17;;
70796;SDS011;63842;52.144;5.360;2022-10-01T10:15:36;10.50;;;1.67;;
70796;SDS011;63842;52.144;5.360;2022-10-01T10:19:25;10.80;;;2.35;;
70796;SDS011;63842;52.144;5.360;2022-10-01T10:27:04;8.55;;;1.73;;
70796;SDS011;63842;52.144;5.360;2022-10-01T10:38:01;8.10;;;1.65;;
70796;SDS011;63842;52.144;5.360;2022-10-01T10:40:31;11.50;;;2.40;;
70796;SDS011;63842;52.144;5.360;2022-10-01T10:47:32;11.02;;;1.77;;
70796;SDS011;63842;52.144;5.360;2022-10-01T10:51:24;9.43;;;1.60;;
70796;SDS011;63842;52.144;5.360;2022-10-01T10:58:42;14.52;;;2.00;;
70796;SDS011;63842;52.144;5.360;2022-10-01T11:07:02;8.95;;;1.70;;
70796;SDS011;63842;52.144;5.360;2022-10-01T11:14:19;10.52;;;1.77;;
70796;SDS011;63842;52.144;5.360;2022-10-01T11:25:19;7.55;;;1.67;;
70796;SDS011;63842;52.144;5.360;2022-10-01T11:46:43;9.18;;;1.80;;
70796;SDS011;63842;52.144;5.360;2022-10-01T11:57:38;9.82;;;2.10;;
70796;SDS011;63842;52.144;5.360;2022-10-01T12:12:10;11.70;;;1.70;;
70796;SDS011;63842;52.144;5.360;2022-10-01T12:14:46;8.93;;;1.60;;
70796;SDS011;63842;52.144;5.360;2022-10-01T12:17:19;8.98;;;1.33;;
70796;SDS011;63842;52.144;5.360;2022-10-01T12:19:58;10.70;;;1.58;;
70796;SDS011;63842;52.144;5.360;2022-10-01T12:22:30;9.55;;;2.10;;
70796;SDS011;63842;52.144;5.360;2022-10-01T12:25:00;8.75;;;1.50;;
70796;SDS011;63842;52.144;5.360;2022-10-01T12:27:30;9.80;;;1.67;;
70796;SDS011;63842;52.144;5.360;2022-10-01T12:30:18;11.43;;;2.08;;
70796;SDS011;63842;52.144;5.360;2022-10-01T12:41:42;10.52;;;1.73;;
70796;SDS011;63842;52.144;5.360;2022-10-01T12:44:26;10.35;;;1.70;;
70796;SDS011;63842;52.144;5.360;2022-10-01T12:57:22;13.75;;;1.73;;
70796;SDS011;63842;52.144;5.360;2022-10-01T13:02:44;8.90;;;1.60;;
70796;SDS011;63842;52.144;5.360;2022-10-01T13:08:32;10.80;;;1.48;;
70796;SDS011;63842;52.144;5.360;2022-10-01T13:11:13;12.20;;;1.77;;
70796;SDS011;63842;52.144;5.360;2022-10-01T13:13:58;9.85;;;1.45;;
70796;SDS011;63842;52.144;5.360;2022-10-01T13:21:54;11.43;;;1.70;;
70796;SDS011;63842;52.144;5.360;2022-10-01T13:24:43;14.75;;;1.70;;
70796;SDS011;63842;52.144;5.360;2022-10-01T13:27:25;7.57;;;1.20;;
70796;SDS011;63842;52.144;5.360;2022-10-01T13:30:03;8.35;;;1.25;;
70796;SDS011;63842;52.144;5.360;2022-10-01T13:32:49;11.10;;;1.60;;
70796;SDS011;63842;52.144;5.360;2022-10-01T13:35:32;10.10;;;1.75;;
70796;SDS011;63842;52.144;5.360;2022-10-01T13:38:14;11.35;;;1.52;;
70796;SDS011;63842;52.144;5.360;2022-10-01T13:40:57;10.52;;;1.48;;
70796;SDS011;63842;52.144;5.360;2022-10-01T13:43:27;8.88;;;1.33;;
70796;SDS011;63842;52.144;5.360;2022-10-01T13:45:54;10.38;;;1.52;;
70796;SDS011;63842;52.144;5.360;2022-10-01T13:48:29;8.27;;;1.90;;
70796;SDS011;63842;52.144;5.360;2022-10-01T13:51:01;12.27;;;1.77;;
70796;SDS011;63842;52.144;5.360;2022-10-01T13:53:34;12.98;;;1.70;;
70796;SDS011;63842;52.144;5.360;2022-10-01T13:56:03;10.55;;;1.52;;
70796;SDS011;63842;52.144;5.360;2022-10-01T13:58:35;11.20;;;1.77;;
70796;SDS011;63842;52.144;5.360;2022-10-01T14:01:27;10.73;;;1.73;;
70796;SDS011;63842;52.144;5.360;2022-10-01T14:06:52;12.20;;;1.50;;
70796;SDS011;63842;52.144;5.360;2022-10-01T14:09:35;8.52;;;1.48;;
70796;SDS011;63842;52.144;5.360;2022-10-01T14:15:17;12.00;;;1.92;;
70796;SDS011;63842;52.144;5.360;2022-10-01T14:18:14;8.90;;;1.42;;
70796;SDS011;63842;52.144;5.360;2022-10-01T14:20:48;10.98;;;1.92;;
70796;SDS011;63842;52.144;5.360;2022-10-01T14:37:11;6.93;;;1.40;;
70796;SDS011;63842;52.144;5.360;2022-10-01T14:39:42;11.57;;;1.77;;
70796;SDS011;63842;52.144;5.360;2022-10-01T14:42:12;9.40;;;1.40;;
70796;SDS011;63842;52.144;5.360;2022-10-01T14:44:45;10.20;;;1.80;;
70796;SDS011;63842;52.144;5.360;2022-10-01T14:47:20;8.27;;;1.40;;
70796;SDS011;63842;52.144;5.360;2022-10-01T14:49:47;11.05;;;1.70;;
70796;SDS011;63842;52.144;5.360;2022-10-01T14:54:49;10.40;;;1.70;;
70796;SDS011;63842;52.144;5.360;2022-10-01T14:57:19;9.93;;;1.90;;
70796;SDS011;63842;52.144;5.360;2022-10-01T14:59:49;10.25;;;1.70;;
70796;SDS011;63842;52.144;5.360;2022-10-01T15:02:20;8.85;;;1.45;;
70796;SDS011;63842;52.144;5.360;2022-10-01T15:04:50;9.18;;;1.67;;
70796;SDS011;63842;52.144;5.360;2022-10-01T15:07:20;10.50;;;1.80;;
70796;SDS011;63842;52.144;5.360;2022-10-01T15:09:48;11.88;;;1.95;;
70796;SDS011;63842;52.144;5.360;2022-10-01T15:12:16;9.93;;;1.60;;
70796;SDS011;63842;52.144;5.360;2022-10-01T15:14:51;11.77;;;1.70;;
70796;SDS011;63842;52.144;5.360;2022-10-01T15:17:23;12.02;;;2.22;;
70796;SDS011;63842;52.144;5.360;2022-10-01T15:19:52;9.52;;;1.48;;
70796;SDS011;63842;52.144;5.360;2022-10-01T15:22:22;11.63;;;1.83;;
70796;SDS011;63842;52.144;5.360;2022-10-01T15:24:53;12.50;;;1.73;;
70796;SDS011;63842;52.144;5.360;2022-10-01T15:27:24;8.65;;;1.60;;
70796;SDS011;63842;52.144;5.360;2022-10-01T15:29:52;10.43;;;1.77;;
70796;SDS011;63842;52.144;5.360;2022-10-01T15:32:22;10.25;;;1.42;;
70796;SDS011;63842;52.144;5.360;2022-10-01T15:34:52;9.88;;;1.27;;
70796;SDS011;63842;52.144;5.360;2022-10-01T15:37:25;12.80;;;1.75;;
70796;SDS011;63842;52.144;5.360;2022-10-01T15:40:02;8.63;;;1.42;;
70796;SDS011;63842;52.144;5.360;2022-10-01T15:42:32;10.82;;;1.70;;
70796;SDS011;63842;52.144;5.360;2022-10-01T15:47:47;10.02;;;1.48;;
70796;SDS011;63842;52.144;5.360;2022-10-01T15:50:20;9.68;;;1.50;;
70796;SDS011;63842;52.144;5.360;2022-10-01T15:53:02;10.07;;;1.45;;
70796;SDS011;63842;52.144;5.360;2022-10-01T15:55:37;9.38;;;2.00;;
70796;SDS011;63842;52.144;5.360;2022-10-01T15:58:20;7.30;;;1.45;;
70796;SDS011;63842;52.144;5.360;2022-10-01T16:00:57;9.55;;;1.80;;
70796;SDS011;63842;52.144;5.360;2022-10-01T16:03:34;10.60;;;2.25;;
70796;SDS011;63842;52.144;5.360;2022-10-01T16:06:16;7.03;;;1.58;;
70796;SDS011;63842;52.144;5.360;2022-10-01T16:11:57;7.40;;;1.50;;
70796;SDS011;63842;52.144;5.360;2022-10-01T16:22:12;10.55;;;1.30;;
70796;SDS011;63842;52.144;5.360;2022-10-01T16:24:46;10.18;;;1.83;;
70796;SDS011;63842;52.144;5.360;2022-10-01T16:27:17;7.57;;;1.38;;
70796;SDS011;63842;52.144;5.360;2022-10-01T16:32:34;9.38;;;1.30;;
70796;SDS011;63842;52.144;5.360;2022-10-01T16:35:14;8.88;;;1.63;;
70796;SDS011;63842;52.144;5.360;2022-10-01T16:37:43;8.63;;;1.80;;
70796;SDS011;63842;52.144;5.360;2022-10-01T16:40:11;8.30;;;1.52;;
70796;SDS011;63842;52.144;5.360;2022-10-01T16:42:41;10.50;;;1.75;;
70796;SDS011;63842;52.144;5.360;2022-10-01T16:45:22;10.52;;;1.85;;
70796;SDS011;63842;52.144;5.360;2022-10-01T16:47:52;10.23;;;1.98;;
70796;SDS011;63842;52.144;5.360;2022-10-01T16:50:22;8.48;;;1.42;;
70796;SDS011;63842;52.144;5.360;2022-10-01T16:52:55;10.48;;;1.60;;
70796;SDS011;63842;52.144;5.360;2022-10-01T16:55:27;8.07;;;1.50;;
70796;SDS011;63842;52.144;5.360;2022-10-01T16:58:03;9.57;;;1.60;;
70796;SDS011;63842;52.144;5.360;2022-10-01T17:00:31;7.25;;;1.45;;
70796;SDS011;63842;52.144;5.360;2022-10-01T17:02:59;8.65;;;1.50;;
70796;SDS011;63842;52.144;5.360;2022-10-01T17:05:29;10.18;;;1.50;;
70796;SDS011;63842;52.144;5.360;2022-10-01T17:07:58;8.10;;;1.70;;
70796;SDS011;63842;52.144;5.360;2022-10-01T17:10:31;8.27;;;1.80;;
70796;SDS011;63842;52.144;5.360;2022-10-01T17:13:01;9.20;;;1.55;;
70796;SDS011;63842;52.144;5.360;2022-10-01T17:15:29;9.70;;;1.60;;
70796;SDS011;63842;52.144;5.360;2022-10-01T17:17:57;6.38;;;1.50;;
70796;SDS011;63842;52.144;5.360;2022-10-01T17:20:25;9.60;;;1.80;;
70796;SDS011;63842;52.144;5.360;2022-10-01T17:22:54;8.88;;;1.67;;
70796;SDS011;63842;52.144;5.360;2022-10-01T17:25:23;9.50;;;1.70;;
70796;SDS011;63842;52.144;5.360;2022-10-01T17:27:53;8.80;;;1.80;;
70796;SDS011;63842;52.144;5.360;2022-10-01T17:30:20;7.13;;;1.50;;
70796;SDS011;63842;52.144;5.360;2022-10-01T17:32:46;10.10;;;1.50;;
70796;SDS011;63842;52.144;5.360;2022-10-01T17:35:14;8.48;;;1.70;;
70796;SDS011;63842;52.144;5.360;2022-10-01T17:37:41;8.48;;;1.55;;
70796;SDS011;63842;52.144;5.360;2022-10-01T17:40:08;8.63;;;1.60;;
70796;SDS011;63842;52.144;5.360;2022-10-01T17:42:36;9.55;;;1.95;;
70796;SDS011;63842;52.144;5.360;2022-10-01T17:45:04;10.05;;;2.20;;
70796;SDS011;63842;52.144;5.360;2022-10-01T17:47:32;7.15;;;1.50;;
70796;SDS011;63842;52.144;5.360;2022-10-01T17:49:59;8.73;;;1.65;;
70796;SDS011;63842;52.144;5.360;2022-10-01T17:52:28;9.57;;;1.70;;
70796;SDS011;63842;52.144;5.360;2022-10-01T17:54:55;10.18;;;1.73;;
70796;SDS011;63842;52.144;5.360;2022-10-01T17:57:21;8.43;;;1.80;;
70796;SDS011;63842;52.144;5.360;2022-10-01T17:59:49;7.50;;;1.60;;
70796;SDS011;63842;52.144;5.360;2022-10-01T18:02:16;9.27;;;1.70;;
70796;SDS011;63842;52.144;5.360;2022-10-01T18:05:03;7.35;;;1.67;;
70796;SDS011;63842;52.144;5.360;2022-10-01T18:07:34;8.05;;;1.77;;
70796;SDS011;63842;52.144;5.360;2022-10-01T18:10:03;8.88;;;1.70;;
70796;SDS011;63842;52.144;5.360;2022-10-01T18:12:31;10.30;;;1.75;;
70796;SDS011;63842;52.144;5.360;2022-10-01T18:14:59;9.05;;;1.70;;
70796;SDS011;63842;52.144;5.360;2022-10-01T18:17:26;10.95;;;2.00;;
70796;SDS011;63842;52.144;5.360;2022-10-01T18:19:53;10.00;;;2.05;;
70796;SDS011;63842;52.144;5.360;2022-10-01T18:22:20;11.80;;;1.95;;
70796;SDS011;63842;52.144;5.360;2022-10-01T18:24:47;9.30;;;1.70;;
70796;SDS011;63842;52.144;5.360;2022-10-01T18:27:14;9.50;;;1.75;;
70796;SDS011;63842;52.144;5.360;2022-10-01T18:29:41;10.55;;;1.75;;
70796;SDS011;63842;52.144;5.360;2022-10-01T18:34:35;8.55;;;2.03;;
70796;SDS011;63842;52.144;5.360;2022-10-01T18:37:15;8.95;;;1.83;;
70796;SDS011;63842;52.144;5.360;2022-10-01T18:42:51;8.50;;;2.30;;
70796;SDS011;63842;52.144;5.360;2022-10-01T18:54:11;10.50;;;2.15;;
70796;SDS011;63842;52.144;5.360;2022-10-01T18:59:52;11.35;;;2.33;;
70796;SDS011;63842;52.144;5.360;2022-10-01T19:10:40;11.93;;;3.50;;
70796;SDS011;63842;52.144;5.360;2022-10-01T19:16:59;10.90;;;2.50;;
70796;SDS011;63842;52.144;5.360;2022-10-01T19:19:44;8.07;;;2.10;;
70796;SDS011;63842;52.144;5.360;2022-10-01T19:22:47;10.98;;;2.08;;
70796;SDS011;63842;52.144;5.360;2022-10-01T19:34:16;11.43;;;2.40;;
70796;SDS011;63842;52.144;5.360;2022-10-01T19:40:04;10.43;;;2.13;;
70796;SDS011;63842;52.144;5.360;2022-10-01T19:42:42;8.82;;;2.17;;
70796;SDS011;63842;52.144;5.360;2022-10-01T19:45:27;13.25;;;2.72;;
70796;SDS011;63842;52.144;5.360;2022-10-01T19:48:06;9.32;;;2.33;;
70796;SDS011;63842;52.144;5.360;2022-10-01T19:50:43;8.25;;;2.10;;
70796;SDS011;63842;52.144;5.360;2022-10-01T19:53:28;10.40;;;2.70;;
70796;SDS011;63842;52.144;5.360;2022-10-01T19:55:59;12.75;;;2.42;;
70796;SDS011;63842;52.144;5.360;2022-10-01T19:58:27;14.13;;;2.65;;
70796;SDS011;63842;52.144;5.360;2022-10-01T20:00:56;9.15;;;2.03;;
70796;SDS011;63842;52.144;5.360;2022-10-01T20:08:52;10.68;;;2.20;;
70796;SDS011;63842;52.144;5.360;2022-10-01T20:16:36;11.13;;;2.28;;
70796;SDS011;63842;52.144;5.360;2022-10-01T20:22:04;9.77;;;2.10;;
70796;SDS011;63842;52.144;5.360;2022-10-01T20:27:42;8.40;;;2.10;;
70796;SDS011;63842;52.144;5.360;2022-10-01T20:30:51;10.20;;;2.30;;
70796;SDS011;63842;52.144;5.360;2022-10-01T20:39:47;9.55;;;2.22;;
70796;SDS011;63842;52.144;5.360;2022-10-01T20:42:21;7.10;;;1.90;;
70796;SDS011;63842;52.144;5.360;2022-10-01T20:44:54;10.18;;;2.08;;
70796;SDS011;63842;52.144;5.360;2022-10-01T20:47:35;10.77;;;2.72;;
70796;SDS011;63842;52.144;5.360;2022-10-01T20:50:14;9.20;;;2.40;;
70796;SDS011;63842;52.144;5.360;2022-10-01T20:52:47;9.45;;;3.15;;
70796;SDS011;63842;52.144;5.360;2022-10-01T20:55:33;11.43;;;2.15;;
70796;SDS011;63842;52.144;5.360;2022-10-01T20:58:08;8.10;;;2.10;;
70796;SDS011;63842;52.144;5.360;2022-10-01T21:00:40;10.20;;;2.22;;
70796;SDS011;63842;52.144;5.360;2022-10-01T21:03:16;13.07;;;2.10;;
70796;SDS011;63842;52.144;5.360;2022-10-01T21:08:36;7.82;;;2.05;;
70796;SDS011;63842;52.144;5.360;2022-10-01T21:11:33;10.45;;;2.20;;
70796;SDS011;63842;52.144;5.360;2022-10-01T21:14:09;8.65;;;2.30;;
70796;SDS011;63842;52.144;5.360;2022-10-01T21:19:47;8.00;;;2.05;;
70796;SDS011;63842;52.144;5.360;2022-10-01T21:25:17;10.90;;;2.47;;
70796;SDS011;63842;52.144;5.360;2022-10-01T21:30:34;12.40;;;2.40;;
70796;SDS011;63842;52.144;5.360;2022-10-01T21:33:31;11.20;;;2.40;;
70796;SDS011;63842;52.144;5.360;2022-10-01T21:36:15;11.57;;;2.20;;
70796;SDS011;63842;52.144;5.360;2022-10-01T21:44:57;8.55;;;2.20;;
70796;SDS011;63842;52.144;5.360;2022-10-01T21:47:38;12.50;;;2.50;;
70796;SDS011;63842;52.144;5.360;2022-10-01T21:53:25;14.00;;;2.50;;
70796;SDS011;63842;52.144;5.360;2022-10-01T22:02:03;12.07;;;2.50;;
70796;SDS011;63842;52.144;5.360;2022-10-01T22:04:51;14.13;;;2.45;;
70796;SDS011;63842;52.144;5.360;2022-10-01T22:07:50;13.88;;;2.30;;
70796;SDS011;63842;52.144;5.360;2022-10-01T22:10:41;14.38;;;3.17;;
70796;SDS011;63842;52.144;5.360;2022-10-01T22:15:46;15.35;;;2.95;;
70796;SDS011;63842;52.144;5.360;2022-10-01T22:19:04;16.33;;;3.30;;
70796;SDS011;63842;52.144;5.360;2022-10-01T22:21:17;15.75;;;3.00;;
70796;SDS011;63842;52.144;5.360;2022-10-01T22:24:10;16.65;;;3.00;;
70796;SDS011;63842;52.144;5.360;2022-10-01T22:26:53;15.13;;;2.55;;
70796;SDS011;63842;52.144;5.360;2022-10-01T22:29:27;16.52;;;2.67;;
70796;SDS011;63842;52.144;5.360;2022-10-01T22:31:57;13.25;;;2.80;;
70796;SDS011;63842;52.144;5.360;2022-10-01T22:34:31;16.60;;;3.30;;
70796;SDS011;63842;52.144;5.360;2022-10-01T22:37:01;15.40;;;3.08;;
70796;SDS011;63842;52.144;5.360;2022-10-01T22:39:53;11.88;;;2.78;;
70796;SDS011;63842;52.144;5.360;2022-10-01T22:42:31;16.35;;;2.65;;
70796;SDS011;63842;52.144;5.360;2022-10-01T22:45:05;14.88;;;2.85;;
70796;SDS011;63842;52.144;5.360;2022-10-01T22:48:02;16.70;;;3.22;;
70796;SDS011;63842;52.144;5.360;2022-10-01T22:50:44;16.45;;;3.35;;
70796;SDS011;63842;52.144;5.360;2022-10-01T22:53:27;15.55;;;2.63;;
70796;SDS011;63842;52.144;5.360;2022-10-01T22:56:30;15.43;;;2.60;;
70796;SDS011;63842;52.144;5.360;2022-10-01T22:59:14;13.25;;;2.60;;
70796;SDS011;63842;52.144;5.360;2022-10-01T23:02:06;13.30;;;2.20;;
70796;SDS011;63842;52.144;5.360;2022-10-01T23:04:54;12.63;;;2.40;;
70796;SDS011;63842;52.144;5.360;2022-10-01T23:10:32;14.07;;;2.78;;
70796;SDS011;63842;52.144;5.360;2022-10-01T23:21:38;11.88;;;2.38;;
70796;SDS011;63842;52.144;5.360;2022-10-01T23:24:19;11.48;;;2.45;;
70796;SDS011;63842;52.144;5.360;2022-10-01T23:29:57;13.68;;;2.70;;
70796;SDS011;63842;52.144;5.360;2022-10-01T23:39:14;14.75;;;2.35;;
70796;SDS011;63842;52.144;5.360;2022-10-01T23:45:22;12.13;;;1.98;;
70796;SDS011;63842;52.144;5.360;2022-10-01T23:48:02;11.43;;;2.47;;
70796;SDS011;63842;52.144;5.360;2022-10-01T23:53:08;11.65;;;1.90;;
70796;SDS011;63842;52.144;5.360;2022-10-01T23:55:45;15.98;;;2.22;;
70796;SDS011;63842;52.144;5.360;2022-10-01T23:59:08;12.90;;;2.08;;
